sensor_id;sensor_type;location;lat;lon;timestamp;pressure;altitude;pressure_sealevel;temperature;humidity
22104;BME280;11218;48.886;9.426;2023-03-16T00:00:21;98419.78;;;1.59;88.80
22104;BME280;11218;48.886;9.426;2023-03-16T00:02:49;98411.81;;;1.59;89.69
22104;BME280;11218;48.886;9.426;2023-03-16T00:05:17;98415.00;;;1.54;88.45
22104;BME280;11218;48.886;9.426;2023-03-16T00:07:46;98419.97;;;1.57;88.51
22104;BME280;11218;48.886;9.426;2023-03-16T00:10:15;98407.06;;;1.54;90.06
22104;BME280;11218;48.886;9.426;2023-03-16T00:12:43;98417.22;;;1.51;89.34
22104;BME280;11218;48.886;9.426;2023-03-16T00:15:12;98417.78;;;1.46;89.12
22104;BME280;11218;48.886;9.426;2023-03-16T00:17:39;98419.34;;;1.41;89.12
22104;BME280;11218;48.886;9.426;2023-03-16T00:20:09;98416.69;;;1.41;88.73
22104;BME280;11218;48.886;9.426;2023-03-16T00:22:38;98414.84;;;1.41;90.03
22104;BME280;11218;48.886;9.426;2023-03-16T00:25:10;98415.03;;;1.40;88.95
22104;BME280;11218;48.886;9.426;2023-03-16T00:27:40;98422.34;;;1.38;89.61
22104;BME280;11218;48.886;9.426;2023-03-16T00:30:09;98413.94;;;1.34;89.73
22104;BME280;11218;48.886;9.426;2023-03-16T00:32:37;98423.19;;;1.38;89.62
22104;BME280;11218;48.886;9.426;2023-03-16T00:35:06;98423.19;;;1.38;88.74
22104;BME280;11218;48.886;9.426;2023-03-16T00:37:35;98427.66;;;1.38;89.91
22104;BME280;11218;48.886;9.426;2023-03-16T00:40:06;98430.84;;;1.33;89.53
22104;BME280;11218;48.886;9.426;2023-03-16T00:42:36;98426.38;;;1.34;89.34
22104;BME280;11218;48.886;9.426;2023-03-16T00:45:05;98417.78;;;1.31;89.61
22104;BME280;11218;48.886;9.426;2023-03-16T00:47:34;98423.91;;;1.32;89.67
22104;BME280;11218;48.886;9.426;2023-03-16T00:50:02;98408.19;;;1.30;88.50
22104;BME280;11218;48.886;9.426;2023-03-16T00:52:31;98408.19;;;1.30;88.96
22104;BME280;11218;48.886;9.426;2023-03-16T00:55:00;98416.03;;;1.24;88.70
22104;BME280;11218;48.886;9.426;2023-03-16T00:57:30;98410.34;;;1.12;89.24
22104;BME280;11218;48.886;9.426;2023-03-16T00:59:59;98421.47;;;1.08;89.36
22104;BME280;11218;48.886;9.426;2023-03-16T01:02:38;98419.19;;;1.05;89.00
22104;BME280;11218;48.886;9.426;2023-03-16T01:05:08;98421.75;;;0.98;89.52
22104;BME280;11218;48.886;9.426;2023-03-16T01:07:38;98417.63;;;0.95;89.80
22104;BME280;11218;48.886;9.426;2023-03-16T01:10:08;98415.16;;;0.94;89.68
22104;BME280;11218;48.886;9.426;2023-03-16T01:12:37;98411.50;;;0.95;90.43
22104;BME280;11218;48.886;9.426;2023-03-16T01:15:09;98407.84;;;0.96;90.74
22104;BME280;11218;48.886;9.426;2023-03-16T01:17:37;98410.31;;;0.97;90.02
22104;BME280;11218;48.886;9.426;2023-03-16T01:20:07;98418.91;;;0.99;91.04
22104;BME280;11218;48.886;9.426;2023-03-16T01:22:38;98410.13;;;0.99;90.33
22104;BME280;11218;48.886;9.426;2023-03-16T01:25:06;98414.59;;;0.98;90.76
22104;BME280;11218;48.886;9.426;2023-03-16T01:27:35;98406.66;;;0.98;91.21
22104;BME280;11218;48.886;9.426;2023-03-16T01:30:04;98409.66;;;0.95;90.82
22104;BME280;11218;48.886;9.426;2023-03-16T01:32:33;98405.00;;;0.97;91.00
22104;BME280;11218;48.886;9.426;2023-03-16T01:35:01;98410.66;;;0.94;89.71
22104;BME280;11218;48.886;9.426;2023-03-16T01:37:30;98400.91;;;0.95;90.30
22104;BME280;11218;48.886;9.426;2023-03-16T01:39:58;98403.72;;;0.93;91.60
22104;BME280;11218;48.886;9.426;2023-03-16T01:42:27;98402.91;;;0.93;90.34
22104;BME280;11218;48.886;9.426;2023-03-16T01:44:57;98399.59;;;0.91;90.10
22104;BME280;11218;48.886;9.426;2023-03-16T01:47:27;98396.50;;;0.87;90.92
22104;BME280;11218;48.886;9.426;2023-03-16T01:49:57;98391.91;;;0.81;90.31
22104;BME280;11218;48.886;9.426;2023-03-16T01:52:27;98402.88;;;0.78;91.26
22104;BME280;11218;48.886;9.426;2023-03-16T01:55:01;98389.44;;;0.80;91.22
22104;BME280;11218;48.886;9.426;2023-03-16T01:57:32;98392.09;;;0.80;90.61
22104;BME280;11218;48.886;9.426;2023-03-16T02:00:05;98382.50;;;0.79;91.94
22104;BME280;11218;48.886;9.426;2023-03-16T02:02:38;98380.84;;;0.78;92.17
22104;BME280;11218;48.886;9.426;2023-03-16T02:05:13;98385.72;;;0.74;92.01
22104;BME280;11218;48.886;9.426;2023-03-16T02:07:45;98380.41;;;0.74;90.75
22104;BME280;11218;48.886;9.426;2023-03-16T02:10:16;98392.38;;;0.70;92.07
22104;BME280;11218;48.886;9.426;2023-03-16T02:12:45;98379.59;;;0.74;91.97
22104;BME280;11218;48.886;9.426;2023-03-16T02:15:14;98383.84;;;0.75;91.56
22104;BME280;11218;48.886;9.426;2023-03-16T02:17:42;98377.13;;;0.72;92.92
22104;BME280;11218;48.886;9.426;2023-03-16T02:20:20;98372.47;;;0.74;92.51
22104;BME280;11218;48.886;9.426;2023-03-16T02:22:53;98370.00;;;0.73;93.20
22104;BME280;11218;48.886;9.426;2023-03-16T02:25:23;98368.78;;;0.75;92.37
22104;BME280;11218;48.886;9.426;2023-03-16T02:27:56;98365.13;;;0.76;93.45
22104;BME280;11218;48.886;9.426;2023-03-16T02:30:29;98360.28;;;0.80;92.78
22104;BME280;11218;48.886;9.426;2023-03-16T02:32:57;98357.28;;;0.83;93.64
22104;BME280;11218;48.886;9.426;2023-03-16T02:35:26;98350.34;;;0.82;93.11
22104;BME280;11218;48.886;9.426;2023-03-16T02:37:54;98338.56;;;0.84;92.82
22104;BME280;11218;48.886;9.426;2023-03-16T02:40:24;98354.28;;;0.86;93.25
22104;BME280;11218;48.886;9.426;2023-03-16T02:42:56;98360.41;;;0.86;92.66
22104;BME280;11218;48.886;9.426;2023-03-16T02:45:35;98354.47;;;0.84;93.38
22104;BME280;11218;48.886;9.426;2023-03-16T02:48:09;98364.13;;;0.77;93.01
22104;BME280;11218;48.886;9.426;2023-03-16T02:50:44;98354.72;;;0.75;92.61
22104;BME280;11218;48.886;9.426;2023-03-16T02:53:14;98352.53;;;0.78;93.17
22104;BME280;11218;48.886;9.426;2023-03-16T02:55:43;98352.06;;;0.75;92.10
22104;BME280;11218;48.886;9.426;2023-03-16T02:58:12;98351.88;;;0.76;93.32
22104;BME280;11218;48.886;9.426;2023-03-16T03:00:42;98352.72;;;0.77;92.77
22104;BME280;11218;48.886;9.426;2023-03-16T03:03:11;98346.59;;;0.76;92.77
22104;BME280;11218;48.886;9.426;2023-03-16T03:05:40;98352.53;;;0.78;92.50
22104;BME280;11218;48.886;9.426;2023-03-16T03:08:08;98346.22;;;0.79;92.78
22104;BME280;11218;48.886;9.426;2023-03-16T03:10:36;98348.06;;;0.79;93.31
22104;BME280;11218;48.886;9.426;2023-03-16T03:13:04;98343.75;;;0.78;92.33
22104;BME280;11218;48.886;9.426;2023-03-16T03:15:33;98348.41;;;0.76;92.21
22104;BME280;11218;48.886;9.426;2023-03-16T03:18:03;98349.81;;;0.72;91.88
22104;BME280;11218;48.886;9.426;2023-03-16T03:20:31;98349.63;;;0.73;92.29
22104;BME280;11218;48.886;9.426;2023-03-16T03:22:59;98349.63;;;0.73;92.10
22104;BME280;11218;48.886;9.426;2023-03-16T03:25:28;98356.19;;;0.77;92.80
22104;BME280;11218;48.886;9.426;2023-03-16T03:28:02;98349.88;;;0.78;91.62
22104;BME280;11218;48.886;9.426;2023-03-16T03:30:31;98346.22;;;0.79;91.81
22104;BME280;11218;48.886;9.426;2023-03-16T03:33:00;98336.47;;;0.80;92.36
22104;BME280;11218;48.886;9.426;2023-03-16T03:35:30;98335.63;;;0.79;91.56
22104;BME280;11218;48.886;9.426;2023-03-16T03:37:58;98332.81;;;0.81;91.44
22104;BME280;11218;48.886;9.426;2023-03-16T03:40:27;98327.88;;;0.78;91.81
22104;BME280;11218;48.886;9.426;2023-03-16T03:42:55;98324.69;;;0.82;91.15
22104;BME280;11218;48.886;9.426;2023-03-16T03:45:24;98326.69;;;0.80;90.98
22104;BME280;11218;48.886;9.426;2023-03-16T03:47:52;98326.97;;;0.85;91.54
22104;BME280;11218;48.886;9.426;2023-03-16T03:50:21;98325.06;;;0.94;91.09
22104;BME280;11218;48.886;9.426;2023-03-16T03:52:51;98329.09;;;1.05;90.58
22104;BME280;11218;48.886;9.426;2023-03-16T03:55:19;98328.00;;;0.99;91.63
22104;BME280;11218;48.886;9.426;2023-03-16T03:57:47;98318.31;;;1.06;90.93
22104;BME280;11218;48.886;9.426;2023-03-16T04:00:16;98323.69;;;0.98;91.08
22104;BME280;11218;48.886;9.426;2023-03-16T04:02:46;98316.47;;;0.92;91.84
22104;BME280;11218;48.886;9.426;2023-03-16T04:05:15;98318.13;;;0.93;92.41
22104;BME280;11218;48.886;9.426;2023-03-16T04:07:43;98313.91;;;0.98;90.90
22104;BME280;11218;48.886;9.426;2023-03-16T04:10:12;98314.81;;;0.91;91.56
22104;BME280;11218;48.886;9.426;2023-03-16T04:12:41;98308.72;;;1.05;91.56
22104;BME280;11218;48.886;9.426;2023-03-16T04:15:10;98312.28;;;0.97;90.92
22104;BME280;11218;48.886;9.426;2023-03-16T04:17:39;98311.34;;;1.05;91.00
22104;BME280;11218;48.886;9.426;2023-03-16T04:20:08;98322.16;;;1.04;90.62
22104;BME280;11218;48.886;9.426;2023-03-16T04:22:40;98319.03;;;1.00;91.96
22104;BME280;11218;48.886;9.426;2023-03-16T04:25:08;98321.88;;;0.98;91.42
22104;BME280;11218;48.886;9.426;2023-03-16T04:27:38;98309.25;;;1.01;91.42
22104;BME280;11218;48.886;9.426;2023-03-16T04:30:08;98311.44;;;0.97;92.36
22104;BME280;11218;48.886;9.426;2023-03-16T04:32:38;98297.75;;;0.93;91.55
22104;BME280;11218;48.886;9.426;2023-03-16T04:35:07;98297.91;;;0.92;91.83
22104;BME280;11218;48.886;9.426;2023-03-16T04:37:35;98303.41;;;0.90;92.58
22104;BME280;11218;48.886;9.426;2023-03-16T04:40:04;98297.09;;;0.91;92.20
22104;BME280;11218;48.886;9.426;2023-03-16T04:42:42;98292.25;;;0.95;92.36
22104;BME280;11218;48.886;9.426;2023-03-16T04:45:11;98285.50;;;0.92;91.74
22104;BME280;11218;48.886;9.426;2023-03-16T04:47:41;98300.38;;;0.93;92.36
22104;BME280;11218;48.886;9.426;2023-03-16T04:50:10;98289.88;;;1.00;91.26
22104;BME280;11218;48.886;9.426;2023-03-16T04:52:38;98294.38;;;0.99;90.91
22104;BME280;11218;48.886;9.426;2023-03-16T04:55:07;98293.09;;;0.95;91.50
22104;BME280;11218;48.886;9.426;2023-03-16T04:57:35;98286.97;;;0.95;91.47
22104;BME280;11218;48.886;9.426;2023-03-16T05:00:07;98294.09;;;0.94;92.15
22104;BME280;11218;48.886;9.426;2023-03-16T05:02:46;98293.25;;;0.94;91.99
22104;BME280;11218;48.886;9.426;2023-03-16T05:05:15;98297.38;;;0.96;92.24
22104;BME280;11218;48.886;9.426;2023-03-16T05:07:43;98297.38;;;0.96;92.12
22104;BME280;11218;48.886;9.426;2023-03-16T05:10:14;98300.84;;;0.97;92.42
22104;BME280;11218;48.886;9.426;2023-03-16T05:12:44;98298.38;;;0.95;91.68
22104;BME280;11218;48.886;9.426;2023-03-16T05:15:13;98298.19;;;0.97;91.73
22104;BME280;11218;48.886;9.426;2023-03-16T05:17:42;98298.66;;;1.01;91.90
22104;BME280;11218;48.886;9.426;2023-03-16T05:20:11;98301.66;;;0.97;91.60
22104;BME280;11218;48.886;9.426;2023-03-16T05:22:51;98292.16;;;1.03;91.59
22104;BME280;11218;48.886;9.426;2023-03-16T05:25:20;98293.16;;;1.02;92.05
22104;BME280;11218;48.886;9.426;2023-03-16T05:27:49;98299.75;;;1.06;91.44
22104;BME280;11218;48.886;9.426;2023-03-16T05:30:19;98293.81;;;1.04;90.75
22104;BME280;11218;48.886;9.426;2023-03-16T05:32:47;98289.78;;;1.08;90.98
22104;BME280;11218;48.886;9.426;2023-03-16T05:35:17;98286.13;;;1.09;90.99
22104;BME280;11218;48.886;9.426;2023-03-16T05:37:45;98286.22;;;1.16;89.85
22104;BME280;11218;48.886;9.426;2023-03-16T05:40:14;98286.78;;;1.11;90.83
22104;BME280;11218;48.886;9.426;2023-03-16T05:42:45;98290.44;;;1.10;91.15
22104;BME280;11218;48.886;9.426;2023-03-16T05:45:15;98283.56;;;1.16;91.22
22104;BME280;11218;48.886;9.426;2023-03-16T05:47:45;98280.66;;;1.11;90.84
22104;BME280;11218;48.886;9.426;2023-03-16T05:50:14;98283.56;;;1.16;90.89
22104;BME280;11218;48.886;9.426;2023-03-16T05:52:43;98280.94;;;1.16;91.03
22104;BME280;11218;48.886;9.426;2023-03-16T05:55:13;98280.09;;;1.15;91.18
22104;BME280;11218;48.886;9.426;2023-03-16T05:57:42;98284.50;;;1.23;90.54
22104;BME280;11218;48.886;9.426;2023-03-16T06:00:13;98277.91;;;1.19;90.62
22104;BME280;11218;48.886;9.426;2023-03-16T06:02:43;98282.03;;;1.21;90.41
22104;BME280;11218;48.886;9.426;2023-03-16T06:05:14;98278.81;;;1.26;90.16
22104;BME280;11218;48.886;9.426;2023-03-16T06:07:43;98272.13;;;1.30;90.19
22104;BME280;11218;48.886;9.426;2023-03-16T06:10:11;98269.50;;;1.30;90.49
22104;BME280;11218;48.886;9.426;2023-03-16T06:12:40;98269.75;;;1.35;90.26
22104;BME280;11218;48.886;9.426;2023-03-16T06:15:09;98268.13;;;1.34;89.55
22104;BME280;11218;48.886;9.426;2023-03-16T06:17:38;98274.31;;;1.41;89.84
22104;BME280;11218;48.886;9.426;2023-03-16T06:20:08;98276.97;;;1.41;89.81
22104;BME280;11218;48.886;9.426;2023-03-16T06:22:40;98268.84;;;1.43;89.33
22104;BME280;11218;48.886;9.426;2023-03-16T06:25:10;98267.25;;;1.48;88.33
22104;BME280;11218;48.886;9.426;2023-03-16T06:27:38;98280.31;;;1.50;88.92
22104;BME280;11218;48.886;9.426;2023-03-16T06:30:09;98273.81;;;1.52;89.13
22104;BME280;11218;48.886;9.426;2023-03-16T06:32:37;98277.56;;;1.58;89.13
22104;BME280;11218;48.886;9.426;2023-03-16T06:35:08;98280.09;;;1.66;87.75
22104;BME280;11218;48.886;9.426;2023-03-16T06:37:37;98278.25;;;1.67;88.25
22104;BME280;11218;48.886;9.426;2023-03-16T06:40:08;98284.19;;;1.69;88.17
22104;BME280;11218;48.886;9.426;2023-03-16T06:42:36;98270.56;;;1.72;87.55
22104;BME280;11218;48.886;9.426;2023-03-16T06:45:05;98280.81;;;1.75;87.74
22104;BME280;11218;48.886;9.426;2023-03-16T06:47:34;98267.16;;;1.78;88.16
22104;BME280;11218;48.886;9.426;2023-03-16T06:50:03;98290.84;;;1.79;87.81
22104;BME280;11218;48.886;9.426;2023-03-16T06:52:31;98286.81;;;1.83;88.23
22104;BME280;11218;48.886;9.426;2023-03-16T06:54:59;98276.53;;;1.95;88.07
22104;BME280;11218;48.886;9.426;2023-03-16T06:57:29;98280.25;;;2.01;87.07
22104;BME280;11218;48.886;9.426;2023-03-16T06:59:57;98274.06;;;1.93;88.15
22104;BME280;11218;48.886;9.426;2023-03-16T07:02:26;98276.34;;;1.96;88.28
22104;BME280;11218;48.886;9.426;2023-03-16T07:04:54;98274.19;;;2.07;87.78
22104;BME280;11218;48.886;9.426;2023-03-16T07:07:22;98279.50;;;2.07;88.06
22104;BME280;11218;48.886;9.426;2023-03-16T07:09:50;98269.50;;;2.09;88.26
22104;BME280;11218;48.886;9.426;2023-03-16T07:12:18;98268.94;;;2.13;88.39
22104;BME280;11218;48.886;9.426;2023-03-16T07:14:48;98280.84;;;2.24;87.38
22104;BME280;11218;48.886;9.426;2023-03-16T07:17:19;98281.59;;;2.39;87.35
22104;BME280;11218;48.886;9.426;2023-03-16T07:19:47;98285.38;;;2.51;86.43
22104;BME280;11218;48.886;9.426;2023-03-16T07:22:15;98290.81;;;2.64;86.57
22104;BME280;11218;48.886;9.426;2023-03-16T07:24:43;98295.84;;;2.81;85.91
22104;BME280;11218;48.886;9.426;2023-03-16T07:27:12;98286.75;;;2.96;85.63
22104;BME280;11218;48.886;9.426;2023-03-16T07:29:40;98289.25;;;3.11;84.93
22104;BME280;11218;48.886;9.426;2023-03-16T07:32:10;98292.19;;;3.23;83.58
22104;BME280;11218;48.886;9.426;2023-03-16T07:34:38;98284.25;;;3.29;83.97
22104;BME280;11218;48.886;9.426;2023-03-16T07:37:07;98290.41;;;3.37;83.13
22104;BME280;11218;48.886;9.426;2023-03-16T07:39:36;98288.59;;;3.44;83.14
22104;BME280;11218;48.886;9.426;2023-03-16T07:42:06;98290.69;;;3.48;83.51
22104;BME280;11218;48.886;9.426;2023-03-16T07:44:34;98294.78;;;3.51;83.14
22104;BME280;11218;48.886;9.426;2023-03-16T07:47:03;98289.50;;;3.64;82.91
22104;BME280;11218;48.886;9.426;2023-03-16T07:49:34;98291.16;;;3.78;82.80
22104;BME280;11218;48.886;9.426;2023-03-16T07:52:02;98290.19;;;3.92;82.20
22104;BME280;11218;48.886;9.426;2023-03-16T07:54:30;98281.81;;;4.09;82.21
22104;BME280;11218;48.886;9.426;2023-03-16T07:56:59;98294.97;;;4.30;80.68
22104;BME280;11218;48.886;9.426;2023-03-16T07:59:27;98290.66;;;4.49;79.80
22104;BME280;11218;48.886;9.426;2023-03-16T08:01:55;98282.88;;;4.54;79.65
22104;BME280;11218;48.886;9.426;2023-03-16T08:04:23;98281.66;;;4.63;78.64
22104;BME280;11218;48.886;9.426;2023-03-16T08:06:53;98283.28;;;4.64;78.40
22104;BME280;11218;48.886;9.426;2023-03-16T08:09:25;98282.66;;;4.75;77.39
22104;BME280;11218;48.886;9.426;2023-03-16T08:11:54;98282.44;;;4.83;77.50
22104;BME280;11218;48.886;9.426;2023-03-16T08:14:22;98291.47;;;5.02;77.05
22104;BME280;11218;48.886;9.426;2023-03-16T08:16:50;98281.16;;;5.19;76.96
22104;BME280;11218;48.886;9.426;2023-03-16T08:19:20;98289.53;;;5.29;76.17
22104;BME280;11218;48.886;9.426;2023-03-16T08:21:48;98285.59;;;5.38;76.31
22104;BME280;11218;48.886;9.426;2023-03-16T08:24:29;98283.31;;;5.48;76.38
22104;BME280;11218;48.886;9.426;2023-03-16T08:26:58;98289.22;;;5.57;75.84
22104;BME280;11218;48.886;9.426;2023-03-16T08:29:26;98286.69;;;5.75;74.64
22104;BME280;11218;48.886;9.426;2023-03-16T08:31:54;98284.59;;;5.90;75.50
22104;BME280;11218;48.886;9.426;2023-03-16T08:34:23;98294.94;;;6.12;75.28
22104;BME280;11218;48.886;9.426;2023-03-16T08:36:52;98282.91;;;6.28;74.62
22104;BME280;11218;48.886;9.426;2023-03-16T08:39:21;98282.16;;;6.45;72.67
22104;BME280;11218;48.886;9.426;2023-03-16T08:41:50;98282.66;;;6.61;73.38
22104;BME280;11218;48.886;9.426;2023-03-16T08:44:19;98271.66;;;6.69;71.78
22104;BME280;11218;48.886;9.426;2023-03-16T08:46:49;98278.59;;;6.76;72.01
22104;BME280;11218;48.886;9.426;2023-03-16T08:49:17;98270.59;;;6.95;70.74
22104;BME280;11218;48.886;9.426;2023-03-16T08:51:46;98267.03;;;7.01;71.67
22104;BME280;11218;48.886;9.426;2023-03-16T08:54:15;98276.81;;;7.13;70.87
22104;BME280;11218;48.886;9.426;2023-03-16T08:56:43;98276.00;;;7.31;70.33
22104;BME280;11218;48.886;9.426;2023-03-16T08:59:12;98270.03;;;7.47;70.87
22104;BME280;11218;48.886;9.426;2023-03-16T09:01:54;98264.88;;;7.64;70.03
22104;BME280;11218;48.886;9.426;2023-03-16T09:04:23;98248.03;;;7.75;69.38
22104;BME280;11218;48.886;9.426;2023-03-16T09:06:51;98252.59;;;7.75;67.42
22104;BME280;11218;48.886;9.426;2023-03-16T09:09:35;98245.38;;;7.75;67.80
22104;BME280;11218;48.886;9.426;2023-03-16T09:12:04;98243.63;;;7.81;68.14
22104;BME280;11218;48.886;9.426;2023-03-16T09:14:34;98260.81;;;7.91;67.13
22104;BME280;11218;48.886;9.426;2023-03-16T09:17:04;98258.50;;;7.95;65.67
22104;BME280;11218;48.886;9.426;2023-03-16T09:19:33;98247.78;;;7.95;65.96
22104;BME280;11218;48.886;9.426;2023-03-16T09:22:20;98249.53;;;8.01;66.83
22104;BME280;11218;48.886;9.426;2023-03-16T09:24:50;98241.53;;;8.13;65.99
22104;BME280;11218;48.886;9.426;2023-03-16T09:27:18;98234.91;;;8.15;64.96
22104;BME280;11218;48.886;9.426;2023-03-16T09:29:49;98239.22;;;8.28;65.70
22104;BME280;11218;48.886;9.426;2023-03-16T09:32:21;98242.78;;;8.40;65.46
22104;BME280;11218;48.886;9.426;2023-03-16T09:34:49;98236.25;;;8.48;65.23
22104;BME280;11218;48.886;9.426;2023-03-16T09:37:18;98235.13;;;8.67;63.39
22104;BME280;11218;48.886;9.426;2023-03-16T09:39:47;98236.06;;;8.73;64.43
22104;BME280;11218;48.886;9.426;2023-03-16T09:42:18;98235.13;;;8.79;63.99
22104;BME280;11218;48.886;9.426;2023-03-16T09:45:02;98229.06;;;8.72;63.52
22104;BME280;11218;48.886;9.426;2023-03-16T09:47:33;98222.53;;;8.68;61.76
22104;BME280;11218;48.886;9.426;2023-03-16T09:50:06;98220.88;;;8.55;61.86
22104;BME280;11218;48.886;9.426;2023-03-16T09:52:39;98234.16;;;8.50;62.44
22104;BME280;11218;48.886;9.426;2023-03-16T09:55:20;98230.31;;;8.46;62.85
22104;BME280;11218;48.886;9.426;2023-03-16T09:57:55;98224.94;;;8.34;63.56
22104;BME280;11218;48.886;9.426;2023-03-16T10:00:27;98227.75;;;8.51;62.24
22104;BME280;11218;48.886;9.426;2023-03-16T10:03:14;98210.50;;;8.70;63.73
22104;BME280;11218;48.886;9.426;2023-03-16T10:05:46;98220.19;;;8.83;62.71
22104;BME280;11218;48.886;9.426;2023-03-16T10:08:20;98206.06;;;8.87;61.83
22104;BME280;11218;48.886;9.426;2023-03-16T10:13:56;98214.19;;;9.16;60.67
22104;BME280;11218;48.886;9.426;2023-03-16T10:16:34;98218.97;;;9.14;61.50
22104;BME280;11218;48.886;9.426;2023-03-16T10:19:10;98209.50;;;9.23;61.77
22104;BME280;11218;48.886;9.426;2023-03-16T10:21:40;98209.72;;;9.21;61.81
22104;BME280;11218;48.886;9.426;2023-03-16T10:24:18;98213.59;;;9.14;59.64
22104;BME280;11218;48.886;9.426;2023-03-16T10:26:54;98213.50;;;9.09;58.29
22104;BME280;11218;48.886;9.426;2023-03-16T10:29:28;98223.06;;;9.05;59.21
22104;BME280;11218;48.886;9.426;2023-03-16T10:32:00;98217.00;;;9.09;59.01
22104;BME280;11218;48.886;9.426;2023-03-16T10:34:32;98211.84;;;9.08;59.52
22104;BME280;11218;48.886;9.426;2023-03-16T10:37:03;98204.38;;;9.10;57.30
22104;BME280;11218;48.886;9.426;2023-03-16T10:39:35;98206.72;;;9.06;58.62
22104;BME280;11218;48.886;9.426;2023-03-16T10:42:14;98200.06;;;8.97;59.35
22104;BME280;11218;48.886;9.426;2023-03-16T10:44:44;98183.03;;;9.03;59.29
22104;BME280;11218;48.886;9.426;2023-03-16T10:47:18;98185.34;;;9.11;59.25
22104;BME280;11218;48.886;9.426;2023-03-16T10:49:49;98186.84;;;9.19;58.42
22104;BME280;11218;48.886;9.426;2023-03-16T10:52:19;98185.78;;;9.32;57.89
22104;BME280;11218;48.886;9.426;2023-03-16T10:54:52;98180.41;;;9.32;57.75
22104;BME280;11218;48.886;9.426;2023-03-16T10:57:29;98184.81;;;9.38;57.91
22104;BME280;11218;48.886;9.426;2023-03-16T11:00:02;98188.66;;;9.42;57.29
22104;BME280;11218;48.886;9.426;2023-03-16T11:02:43;98194.25;;;9.52;57.51
22104;BME280;11218;48.886;9.426;2023-03-16T11:05:13;98183.72;;;9.50;56.93
22104;BME280;11218;48.886;9.426;2023-03-16T11:07:56;98190.94;;;9.62;57.43
22104;BME280;11218;48.886;9.426;2023-03-16T11:10:29;98192.16;;;9.71;56.31
22104;BME280;11218;48.886;9.426;2023-03-16T11:13:02;98189.41;;;9.82;56.68
22104;BME280;11218;48.886;9.426;2023-03-16T11:15:36;98178.44;;;10.01;56.33
22104;BME280;11218;48.886;9.426;2023-03-16T11:18:14;98180.03;;;10.13;55.70
22104;BME280;11218;48.886;9.426;2023-03-16T11:20:43;98173.28;;;10.28;55.80
22104;BME280;11218;48.886;9.426;2023-03-16T11:23:16;98183.09;;;10.34;55.63
22104;BME280;11218;48.886;9.426;2023-03-16T11:25:49;98183.06;;;10.50;54.63
22104;BME280;11218;48.886;9.426;2023-03-16T11:28:23;98176.84;;;10.67;53.90
22104;BME280;11218;48.886;9.426;2023-03-16T11:31:07;98167.84;;;10.78;54.14
22104;BME280;11218;48.886;9.426;2023-03-16T11:33:37;98161.97;;;10.81;53.63
22104;BME280;11218;48.886;9.426;2023-03-16T11:36:16;98153.97;;;10.86;53.41
22104;BME280;11218;48.886;9.426;2023-03-16T11:38:58;98154.47;;;11.05;52.91
22104;BME280;11218;48.886;9.426;2023-03-16T11:41:38;98157.00;;;11.11;52.85
22104;BME280;11218;48.886;9.426;2023-03-16T11:44:15;98148.94;;;11.16;52.86
22104;BME280;11218;48.886;9.426;2023-03-16T11:46:50;98163.69;;;11.31;50.72
22104;BME280;11218;48.886;9.426;2023-03-16T11:49:42;98154.66;;;11.42;50.62
22104;BME280;11218;48.886;9.426;2023-03-16T11:52:20;98161.09;;;11.41;50.29
22104;BME280;11218;48.886;9.426;2023-03-16T11:54:58;98160.16;;;11.52;51.03
22104;BME280;11218;48.886;9.426;2023-03-16T11:57:35;98157.56;;;11.62;48.56
22104;BME280;11218;48.886;9.426;2023-03-16T12:00:16;98147.16;;;11.71;49.99
22104;BME280;11218;48.886;9.426;2023-03-16T12:03:03;98147.69;;;11.73;47.97
22104;BME280;11218;48.886;9.426;2023-03-16T12:05:59;98128.31;;;11.76;50.17
22104;BME280;11218;48.886;9.426;2023-03-16T12:09:01;98119.25;;;11.82;49.09
22104;BME280;11218;48.886;9.426;2023-03-16T12:11:37;98113.97;;;11.97;48.36
22104;BME280;11218;48.886;9.426;2023-03-16T12:14:17;98120.84;;;12.15;49.56
22104;BME280;11218;48.886;9.426;2023-03-16T12:16:53;98119.25;;;12.19;49.45
22104;BME280;11218;48.886;9.426;2023-03-16T12:19:26;98105.84;;;12.29;48.95
22104;BME280;11218;48.886;9.426;2023-03-16T12:22:08;98111.53;;;12.33;48.32
22104;BME280;11218;48.886;9.426;2023-03-16T12:24:43;98109.47;;;12.45;47.34
22104;BME280;11218;48.886;9.426;2023-03-16T12:27:15;98110.06;;;12.52;46.85
22104;BME280;11218;48.886;9.426;2023-03-16T12:29:52;98104.69;;;12.57;46.75
22104;BME280;11218;48.886;9.426;2023-03-16T12:32:33;98100.38;;;12.56;46.11
22104;BME280;11218;48.886;9.426;2023-03-16T12:35:18;98095.53;;;12.58;45.43
22104;BME280;11218;48.886;9.426;2023-03-16T12:37:57;98089.03;;;12.64;46.32
22104;BME280;11218;48.886;9.426;2023-03-16T12:40:32;98085.56;;;12.69;46.26
22104;BME280;11218;48.886;9.426;2023-03-16T12:43:26;98085.41;;;12.96;46.88
22104;BME280;11218;48.886;9.426;2023-03-16T12:46:03;98093.38;;;13.18;44.96
22104;BME280;11218;48.886;9.426;2023-03-16T12:48:37;98090.34;;;13.14;44.54
22104;BME280;11218;48.886;9.426;2023-03-16T12:51:07;98092.47;;;13.02;43.70
22104;BME280;11218;48.886;9.426;2023-03-16T12:53:44;98082.16;;;12.94;43.07
22104;BME280;11218;48.886;9.426;2023-03-16T12:56:16;98074.88;;;12.94;43.20
22104;BME280;11218;48.886;9.426;2023-03-16T12:58:46;98067.81;;;12.83;44.94
22104;BME280;11218;48.886;9.426;2023-03-16T13:01:17;98067.22;;;12.76;44.66
22104;BME280;11218;48.886;9.426;2023-03-16T13:03:47;98076.09;;;12.61;45.50
22104;BME280;11218;48.886;9.426;2023-03-16T13:06:18;98080.97;;;12.69;45.24
22104;BME280;11218;48.886;9.426;2023-03-16T13:08:52;98088.84;;;12.76;45.03
22104;BME280;11218;48.886;9.426;2023-03-16T13:11:23;98077.75;;;12.72;43.90
22104;BME280;11218;48.886;9.426;2023-03-16T13:14:06;98072.31;;;12.67;43.95
22104;BME280;11218;48.886;9.426;2023-03-16T13:16:46;98071.50;;;12.67;43.96
22104;BME280;11218;48.886;9.426;2023-03-16T13:19:22;98069.88;;;12.66;44.10
22104;BME280;11218;48.886;9.426;2023-03-16T13:22:00;98058.31;;;12.75;44.10
22104;BME280;11218;48.886;9.426;2023-03-16T13:24:38;98057.84;;;12.89;42.33
22104;BME280;11218;48.886;9.426;2023-03-16T13:27:19;98062.75;;;13.02;42.88
22104;BME280;11218;48.886;9.426;2023-03-16T13:29:57;98057.09;;;13.08;43.41
22104;BME280;11218;48.886;9.426;2023-03-16T13:32:29;98044.19;;;13.21;42.57
22104;BME280;11218;48.886;9.426;2023-03-16T13:34:58;98041.53;;;13.36;43.13